• Join FlightAware (Why Join?)
  • Login
  • US Flag 
02:56AM EDT


 

Airport Tracker/Info


-or-


 

Live Flight TrackerFlight Track Log ✈ EJA922 ✈ 22-Sep-2013 ✈ KLSE - KJZI

Flight Track Log - Related Links

Times and Time Zones

All times are in EDT time to prevent confusion due to time zone crossing. See the EJA922 flight status page for this flight to view local times or setup timezone preferences in your user account.

Time Position Orientation Groundspeed Altitude Reporting Facility
EDT Latitude Longitude Course Direction KTS MPH feet Rate Location/Type
10:50AM 43.9150 -91.2200 137° Southeast 224 258 3,900  Level Minneapolis Center
10:51AM 43.8539 -91.1817 156° South 246 283 7,200 2,820 Climbing Minneapolis Center
10:52AM 43.7803 -91.1589 167° South 274 315 9,800 2,340 Climbing Minneapolis Center
10:53AM 43.6917 -91.1281 166° South 312 359 12,100 1,920 Climbing Minneapolis Center
10:54AM 43.2982 -90.5416 166° South  Level Estimated
10:54AM 43.5867 -91.0942 167° South 366 421 13,800  Level Minneapolis Center
10:55AM 43.2010 -90.4238 137° Southeast  Level Estimated
10:55AM 43.4758 -91.0564 166° South 390 449 16,200  Level Minneapolis Center
10:56AM 43.3622 -91.0197 167° South 399 459 18,300 1,860 Climbing Minneapolis Center
10:57AM 43.2578 -90.9867 167° South 402 463 20,100 1,620 Climbing Minneapolis Center
10:58AM 43.1442 -90.9489 166° South 413 475 21,700 1,500 Climbing Minneapolis Center
10:59AM 43.0281 -90.9114 167° South 423 487 23,300 1,440 Climbing Minneapolis Center
11:00AM 42.9086 -90.8714 166° South 434 499 24,700 1,500 Climbing Minneapolis Center
11:01AM 42.7600 -90.8231 167° South 449 517 26,500 1,560 Climbing Minneapolis Center
11:02AM 42.6328 -90.7789 166° South 463 533 28,000 1,260 Climbing Minneapolis Center
11:03AM 42.5103 -90.6403 140° Southeast 485 558 29,500 1,200 Climbing Chicago Center
11:04AM 42.4094 -90.5169 138° Southeast 488 562 30,800 1,380 Climbing Chicago Center
11:05AM 42.2833 -90.3664 139° Southeast 503 579 32,400 1,500 Climbing Chicago Center
11:06AM 42.1769 -90.2428 139° Southeast 507 583 34,000 1,200 Climbing Chicago Center
11:08AM 42.0708 -90.1161 138° Southeast 512 589 34,900 1,020 Climbing Chicago Center
11:09AM 41.9614 -89.9886 139° Southeast 522 601 36,200 1,320 Climbing Chicago Center
11:10AM 41.8442 -89.8550 140° Southeast 523 602 37,700 1,380 Climbing Chicago Center
11:11AM 41.7439 -89.7367 139° Southeast 521 600 39,100 1,560 Climbing Chicago Center
11:12AM 41.6142 -89.5872 139° Southeast 514 592 41,000 900 Climbing Chicago Center
11:13AM 41.5044 -89.4614 139° Southeast 518 596 41,000  Level Chicago Center
11:14AM 41.3897 -89.3297 139° Southeast 539 620 41,000  Level Chicago Center
11:15AM 41.2711 -89.1942 139° Southeast 549 632 41,000  Level Chicago Center
11:16AM 41.1528 -89.0628 140° Southeast 557 641 41,000  Level Chicago Center
11:17AM 41.0350 -88.9303 140° Southeast 560 644 41,000  Level Chicago Center
11:18AM 40.8950 -88.7719 139° Southeast 559 643 41,000  Level Chicago Center
11:19AM 40.7778 -88.6406 140° Southeast 560 644 41,000  Level Chicago Center
11:20AM 40.6589 -88.5086 140° Southeast 563 648 41,000  Level Chicago Center
11:21AM 40.5414 -88.3786 140° Southeast 559 643 41,000  Level Chicago Center
11:22AM 40.3992 -88.2228 140° Southeast 560 644 41,000  Level Chicago Center
11:23AM 40.2803 -88.0922 140° Southeast 560 644 41,000  Level Chicago Center
11:24AM 40.1700 -87.9736 141° Southeast 559 643 41,000  Level Chicago Center
11:25AM 40.0511 -87.8464 141° Southeast 557 641 41,000  Level Chicago Center
11:26AM 39.9078 -87.6911 140° Southeast 560 644 41,000  Level Chicago Center
11:27AM 39.7864 -87.5622 141° Southeast 565 650 41,000  Level Chicago Center
11:28AM 39.6669 -87.4358 141° Southeast 562 647 41,000  Level Chicago Center
11:29AM 39.5467 -87.3092 141° Southeast 561 646 41,000  Level Chicago Center
11:30AM 39.4297 -87.1764 139° Southeast 564 649 41,000  Level Chicago Center
11:31AM 39.2953 -87.0103 136° Southeast 567 652 41,000  Level Chicago Center
11:33AM 39.1333 -86.8108 136° Southeast 560 644 41,000  Level Indianapolis Center
11:34AM 39.0186 -86.6711 137° Southeast 562 647 41,000  Level Indianapolis Center
11:35AM 38.8914 -86.5167 137° Southeast 559 643 41,000  Level Indianapolis Center
11:36AM 38.7903 -86.3939 137° Southeast 560 644 41,000  Level Indianapolis Center
11:37AM 38.6756 -86.2558 137° Southeast 560 644 41,000  Level Indianapolis Center
11:38AM 38.5608 -86.1194 137° Southeast 559 643 41,000  Level Indianapolis Center
11:39AM 38.4239 -85.9561 137° Southeast 557 641 41,000  Level Indianapolis Center
11:40AM 38.3106 -85.8208 137° Southeast 554 638 41,000  Level Indianapolis Center
11:41AM 38.1967 -85.6864 137° Southeast 554 638 41,000  Level Indianapolis Center
11:42AM 38.0814 -85.5511 137° Southeast 558 642 41,000  Level Indianapolis Center
11:43AM 37.9706 -85.4114 135° Southeast 558 642 41,000  Level Indianapolis Center
11:44AM 37.8600 -85.2728 135° Southeast 557 641 41,000  Level Indianapolis Center
11:45AM 37.7433 -85.1244 135° Southeast 558 642 41,000  Level Indianapolis Center
11:46AM 37.6250 -84.9956 139° Southeast 562 647 41,000  Level Indianapolis Center
11:47AM 37.4967 -84.8847 146° Southeast 558 642 41,000  Level Indianapolis Center
11:48AM 37.3686 -84.7722 145° Southeast 561 646 41,000  Level Indianapolis Center
11:49AM 37.2203 -84.6408 145° Southeast 560 644 41,000  Level Indianapolis Center
11:50AM 37.0933 -84.5286 145° Southeast 559 643 41,000  Level Indianapolis Center
11:51AM 36.9672 -84.4169 145° Southeast 557 641 41,000  Level Indianapolis Center
11:52AM 36.8436 -84.3033 144° Southeast 553 636 41,000  Level Indianapolis Center
11:53AM 36.7197 -84.1900 144° Southeast 554 638 41,000  Level Indianapolis Center
11:54AM 36.5961 -84.0747 143° Southeast 556 640 41,000  Level Indianapolis Center
11:55AM 36.4681 -83.9558 143° Southeast 551 634 41,000  Level Indianapolis Center
11:56AM 36.3572 -83.8200 135° Southeast 559 643 41,000  Level Indianapolis Center
11:57AM 36.2547 -83.6733 131° Southeast 560 644 41,000  Level Indianapolis Center
11:58AM 36.1342 -83.4972 130° Southeast 558 642 41,000  Level Indianapolis Center
12:00PM 36.0472 -83.3689 130° Southeast 550 633 41,000  Level Indianapolis Center
12:01PM 35.9306 -83.2006 131° Southeast 551 634 41,000  Level Indianapolis Center
12:02PM 35.8308 -83.0564 130° Southeast 553 636 41,000  Level Indianapolis Center
12:03PM 35.7294 -82.9128 131° Southeast 555 639 41,000  Level Indianapolis Center
12:04PM 35.6092 -82.7411 131° Southeast 558 642 41,000  Level Atlanta Center
12:05PM 35.5094 -82.5997 131° Southeast 558 642 41,000 -540 Level Atlanta Center
12:06PM 35.4033 -82.4514 131° Southeast 541 623 40,000 -1,260 Descending Atlanta Center
12:07PM 35.3033 -82.3058 130° Southeast 541 623 38,500 -1,500 Descending Atlanta Center
12:08PM 35.2011 -82.1681 132° Southeast 548 631 37,000 -1,560 Descending Atlanta Center
12:09PM 35.1008 -82.0256 131° Southeast 553 636 35,400 -1,560 Descending Atlanta Center
12:10PM 34.9881 -81.8989 137° Southeast 547 629 33,900 -1,500 Descending Atlanta Center
12:11PM 34.8633 -81.8111 150° Southeast 538 619 32,400 -1,500 Descending Atlanta Center
12:12PM 34.7367 -81.7211 150° Southeast 525 604 30,900 -1,500 Descending Atlanta Center
12:14PM 34.4422 -81.5078 149° Southeast 537 618 27,400 -1,440 Descending Jacksonville Center
12:15PM 34.3181 -81.4219 150° Southeast 532 612 26,200 -1,260 Descending Jacksonville Center
12:16PM 34.2003 -81.3408 150° Southeast 515 593 24,900 -1,440 Descending Jacksonville Center
12:17PM 34.0844 -81.2578 149° Southeast 495 570 23,400 -1,500 Descending Jacksonville Center
12:18PM 33.9667 -81.1772 150° Southeast 489 563 21,900 -1,500 Descending Jacksonville Center
12:19PM 33.8528 -81.0994 150° Southeast 489 563 20,400 -1,500 Descending Jacksonville Center
12:20PM 33.7411 -81.0194 149° Southeast 478 550 18,900 -1,560 Descending Jacksonville Center
12:21PM 33.6272 -80.9419 150° Southeast 473 544 17,300 -1,560 Descending Jacksonville Center
12:22PM 33.5197 -80.8697 151° Southeast 460 529 15,800 -1,500 Descending Jacksonville Center
12:23PM 33.4100 -80.7950 150° Southeast 460 529 14,300 -1,500 Descending Jacksonville Center
12:24PM 33.3044 -80.7228 150° Southeast 454 522 12,800 -1,500 Descending Jacksonville Center
12:25PM 33.2153 -80.6356 141° Southeast 436 502 11,300 -1,560 Descending Jacksonville Center
12:26PM 33.1775 -80.5125 110° East 400 460 9,700 -1,200 Descending Jacksonville Center
12:27PM 33.1175 -80.4397 135° Southeast 324 373 8,900 -1,200 Descending Jacksonville Center
12:28PM 33.0478 -80.3969 153° Southeast 303 349 7,400 -1,200 Descending Jacksonville Center
12:29PM 32.9844 -80.3567 152° Southeast 297 342 6,500 1,800 Descending Jacksonville Center
12:30PM 32.9144 -80.3042 148° Southeast 297 342 11,000 2,220 Climbing Jacksonville Center
12:31PM 32.8467 -80.2494 146° Southeast 297 342 11,000  Level Jacksonville Center
12:32PM 32.7767 -80.1969 148° Southeast 297 342 11,000  Level Jacksonville Center
12:33PM 32.7364 -80.1636 145° Southeast 297 342 11,000  Level Jacksonville Center